createdAt,value
2019-02-19T00:02:04.927Z,99522.67
2019-02-19T00:04:33.155Z,99504.44
2019-02-19T00:07:01.611Z,99504.44
2019-02-19T00:09:29.875Z,99516.11
2019-02-19T00:11:58.131Z,99516.11
2019-02-19T00:14:26.385Z,99519.92
2019-02-19T00:16:54.609Z,99508.93
2019-02-19T00:19:22.882Z,99501.27
2019-02-19T00:21:51.121Z,99521.14
2019-02-19T00:24:19.350Z,99519.97
2019-02-19T00:26:47.595Z,99515.23
2019-02-19T00:29:16.081Z,99493.06
2019-02-19T00:31:44.369Z,99514.14
2019-02-19T00:34:12.599Z,99514.24
2019-02-19T00:36:40.842Z,99514.24
2019-02-19T00:39:09.070Z,99518.55
2019-02-19T00:41:37.565Z,99522.27
2019-02-19T00:44:05.796Z,99523.64
2019-02-19T00:46:34.034Z,99522.91
2019-02-19T00:49:02.267Z,99511.38
2019-02-19T00:51:30.780Z,99510.10
2019-02-19T00:53:59.002Z,99510.10
2019-02-19T00:56:27.534Z,99526.37
2019-02-19T00:58:56.036Z,99514.91
2019-02-19T01:01:24.279Z,99520.88
2019-02-19T01:03:52.489Z,99522.44
2019-02-19T01:06:20.721Z,99522.44
2019-02-19T01:08:49.173Z,99514.76
2019-02-19T01:11:17.406Z,99528.69
2019-02-19T01:13:45.647Z,99512.77
2019-02-19T01:16:13.946Z,99512.77
2019-02-19T01:18:42.185Z,99527.48
2019-02-19T01:21:10.410Z,99527.98
2019-02-19T01:23:38.653Z,99529.75
2019-02-19T01:26:06.878Z,99530.14
2019-02-19T01:28:35.114Z,99519.24
2019-02-19T01:31:03.347Z,99519.24
2019-02-19T01:33:31.584Z,99527.98
2019-02-19T01:35:59.887Z,99527.98
2019-02-19T01:38:28.456Z,99507.36
2019-02-19T01:40:56.935Z,99526.77
2019-02-19T01:43:25.169Z,99516.25
2019-02-19T01:45:53.506Z,99524.28
2019-02-19T01:48:21.753Z,99528.03
2019-02-19T01:50:49.969Z,99528.03
2019-02-19T01:53:18.205Z,99523.00
2019-02-19T01:55:46.648Z,99526.59
2019-02-19T01:58:14.896Z,99510.00
2019-02-19T02:00:43.131Z,99518.95
2019-02-19T02:03:11.351Z,99518.95
2019-02-19T02:05:39.580Z,99521.67
2019-02-19T02:08:07.818Z,99520.50
2019-02-19T02:10:36.369Z,99520.50
2019-02-19T02:13:04.595Z,99523.28
2019-02-19T02:15:32.836Z,99515.92
2019-02-19T02:18:01.067Z,99515.52
2019-02-19T02:20:29.306Z,99515.52
2019-02-19T02:22:57.849Z,99481.04
2019-02-19T02:25:26.086Z,99513.39
2019-02-19T02:27:54.343Z,99513.39
2019-02-19T02:30:22.766Z,99509.47
2019-02-19T02:32:50.987Z,99500.13
2019-02-19T02:35:19.228Z,99496.04
2019-02-19T02:37:47.702Z,99501.17
2019-02-19T02:40:15.934Z,99491.89
2019-02-19T02:42:44.476Z,99466.02
2019-02-19T02:45:12.726Z,99491.89
2019-02-19T02:47:40.940Z,99491.28
2019-02-19T02:50:09.522Z,99480.07
2019-02-19T02:52:37.999Z,99492.61
2019-02-19T02:55:06.305Z,99492.61
2019-02-19T02:57:34.760Z,99488.93
2019-02-19T03:00:03.266Z,99488.93
2019-02-19T03:02:31.498Z,99488.48
2019-02-19T03:04:59.748Z,99495.30
2019-02-19T03:07:29.619Z,99485.41
2019-02-19T03:09:57.910Z,99485.41
2019-02-19T03:12:26.151Z,99485.34
2019-02-19T03:14:54.642Z,99487.72
2019-02-19T03:17:23.227Z,99491.64
2019-02-19T03:19:51.681Z,99489.87
2019-02-19T03:22:19.936Z,99493.02
2019-02-19T03:24:48.471Z,99486.77
2019-02-19T03:27:16.718Z,99467.37
2019-02-19T03:29:44.962Z,99490.53
2019-02-19T03:32:13.195Z,99502.98
2019-02-19T03:34:41.423Z,99499.98
2019-02-19T03:37:09.673Z,99496.17
2019-02-19T03:39:37.941Z,99510.14
2019-02-19T03:42:06.185Z,99510.14
2019-02-19T03:44:34.418Z,99503.52
2019-02-19T03:47:02.654Z,99503.52
2019-02-19T03:49:30.882Z,99472.88
2019-02-19T03:51:59.410Z,99500.89
2019-02-19T03:54:27.639Z,99490.64
2019-02-19T03:56:55.879Z,99500.73
2019-02-19T03:59:24.106Z,99488.29
2019-02-19T04:01:52.632Z,99501.84
2019-02-19T04:04:20.853Z,99501.84
2019-02-19T04:06:49.314Z,99486.53
2019-02-19T04:09:17.556Z,99475.55
2019-02-19T04:11:46.038Z,99506.53
2019-02-19T04:14:14.521Z,99516.72
2019-02-19T04:16:42.762Z,99507.92
2019-02-19T04:19:11.004Z,99485.65
2019-02-19T04:21:39.454Z,99513.50
2019-02-19T04:24:07.690Z,99513.50
2019-02-19T04:26:35.927Z,99500.83
2019-02-19T04:29:04.168Z,99514.87
2019-02-19T04:31:32.390Z,99514.87
2019-02-19T04:34:00.942Z,99518.56
2019-02-19T04:36:29.197Z,99514.07
2019-02-19T04:38:57.439Z,99516.52
2019-02-19T04:41:25.657Z,99503.55
2019-02-19T04:43:53.898Z,99518.57
2019-02-19T04:46:31.105Z,99518.57
2019-02-19T04:48:52.096Z,99520.05
2019-02-19T04:51:20.346Z,99518.59
2019-02-19T04:53:48.581Z,99518.59
2019-02-19T04:56:16.811Z,99523.78
2019-02-19T04:58:47.068Z,99524.77
2019-02-19T05:01:15.276Z,99527.98
2019-02-19T05:03:43.549Z,99522.72
2019-02-19T05:06:11.839Z,99527.72
2019-02-19T05:08:40.096Z,99531.75
2019-02-19T05:11:08.322Z,99531.75
2019-02-19T05:13:36.550Z,99523.59
2019-02-19T05:16:04.776Z,99507.23
2019-02-19T05:18:33.019Z,99507.23
2019-02-19T05:21:01.588Z,99524.84
2019-02-19T05:23:29.889Z,99524.84
2019-02-19T05:25:58.124Z,99533.77
2019-02-19T05:28:26.385Z,99533.77
2019-02-19T05:30:54.614Z,99546.82
2019-02-19T05:33:23.199Z,99548.95
2019-02-19T05:35:51.505Z,99515.71
2019-02-19T05:38:20.039Z,99547.58
2019-02-19T05:40:48.282Z,99544.34
2019-02-19T05:43:16.503Z,99546.36
2019-02-19T05:45:45.075Z,99546.36
2019-02-19T05:48:13.307Z,99543.22
2019-02-19T05:50:41.554Z,99533.60
2019-02-19T05:53:10.027Z,99538.02
2019-02-19T05:55:38.491Z,99540.23
2019-02-19T05:58:06.725Z,99542.50
2019-02-19T06:00:35.307Z,99532.88
2019-02-19T06:03:03.712Z,99539.05
2019-02-19T06:05:31.939Z,99537.68
2019-02-19T06:08:00.177Z,99538.95
2019-02-19T06:10:28.666Z,99544.84
2019-02-19T06:12:56.900Z,99540.92
2019-02-19T06:15:25.136Z,99548.19
2019-02-19T06:17:53.358Z,99550.16
2019-02-19T06:20:21.821Z,99555.36
2019-02-19T06:22:50.048Z,99555.36
2019-02-19T06:25:18.286Z,99562.42
2019-02-19T06:27:46.515Z,99575.78
2019-02-19T06:30:14.823Z,99567.73
2019-02-19T06:32:43.063Z,99571.26
2019-02-19T06:35:11.539Z,99573.52
2019-02-19T06:37:39.838Z,99578.03
2019-02-19T06:40:14.023Z,99576.52
2019-02-19T06:42:42.247Z,99584.87
2019-02-19T06:45:10.482Z,99584.66
2019-02-19T06:47:38.706Z,99593.89
2019-02-19T06:50:06.934Z,99593.66
2019-02-19T06:52:35.174Z,99596.99
2019-02-19T06:55:03.401Z,99595.91
2019-02-19T06:57:31.977Z,99601.30
2019-02-19T07:00:00.205Z,99610.01
2019-02-19T07:02:36.074Z,99608.53
2019-02-19T07:05:05.406Z,99618.67
2019-02-19T07:07:33.643Z,99615.03
2019-02-19T07:10:01.980Z,99612.48
2019-02-19T07:12:30.648Z,99614.89
2019-02-19T07:14:59.231Z,99619.41
2019-02-19T07:17:27.695Z,99622.05
2019-02-19T07:19:55.931Z,99614.73
2019-02-19T07:22:24.172Z,99625.93
2019-02-19T07:24:52.402Z,99623.56
2019-02-19T07:27:20.641Z,99622.98
2019-02-19T07:29:49.121Z,99627.98
2019-02-19T07:32:17.430Z,99630.33
2019-02-19T07:34:45.666Z,99638.83
2019-02-19T07:37:13.911Z,99640.99
2019-02-19T07:39:42.139Z,99646.39
2019-02-19T07:42:10.403Z,99638.62
2019-02-19T07:44:38.624Z,99647.85
2019-02-19T07:47:06.865Z,99652.33
2019-02-19T07:49:35.101Z,99662.25
2019-02-19T07:52:03.339Z,99662.93
2019-02-19T07:54:31.572Z,99660.86
2019-02-19T07:56:59.817Z,99666.86
2019-02-19T07:59:28.052Z,99666.07
2019-02-19T08:01:56.622Z,99676.78
2019-02-19T08:04:24.871Z,99681.22
2019-02-19T08:06:53.380Z,99688.31
2019-02-19T08:09:21.872Z,99688.70
2019-02-19T08:11:50.112Z,99678.58
2019-02-19T08:14:18.631Z,99689.59
2019-02-19T08:16:47.211Z,99687.34
2019-02-19T08:19:15.692Z,99695.50
2019-02-19T08:21:43.930Z,99699.33
2019-02-19T08:24:12.451Z,99683.85
2019-02-19T08:26:40.930Z,99707.98
2019-02-19T08:29:13.729Z,99711.03
2019-02-19T08:31:39.133Z,99719.67
2019-02-19T08:34:07.379Z,99723.61
2019-02-19T08:36:35.609Z,99725.19
2019-02-19T08:39:04.820Z,99724.89
2019-02-19T08:41:33.258Z,99722.12
2019-02-19T08:44:01.735Z,99723.11
2019-02-19T08:46:29.966Z,99726.20
2019-02-19T08:48:58.207Z,99724.81
2019-02-19T08:51:26.435Z,99732.19
2019-02-19T08:53:54.685Z,99732.77
2019-02-19T08:56:23.235Z,99738.47
2019-02-19T08:58:51.475Z,99739.91
2019-02-19T09:01:19.715Z,99740.98
2019-02-19T09:03:48.267Z,99735.07
2019-02-19T09:06:16.523Z,99743.81
2019-02-19T09:08:44.743Z,99739.88
2019-02-19T09:11:12.981Z,99747.75
2019-02-19T09:13:41.217Z,99751.83
2019-02-19T09:16:09.447Z,99749.45
2019-02-19T09:18:37.681Z,99747.48
2019-02-19T09:21:06.142Z,99754.67
2019-02-19T09:23:34.381Z,99749.45
2019-02-19T09:26:02.617Z,99749.85
2019-02-19T09:28:30.856Z,99749.55
2019-02-19T09:30:59.087Z,99753.58
2019-02-19T09:33:27.331Z,99749.44
2019-02-19T09:35:55.574Z,99748.09
2019-02-19T09:38:24.147Z,99758.12
2019-02-19T09:40:52.392Z,99755.34
2019-02-19T09:43:20.623Z,99748.64
2019-02-19T09:45:48.856Z,99755.77
2019-02-19T09:48:17.090Z,99746.02
2019-02-19T09:50:45.330Z,99744.44
2019-02-19T09:53:13.804Z,99746.27
2019-02-19T09:55:43.829Z,99755.63
2019-02-19T09:58:12.177Z,99754.73
2019-02-19T10:00:40.427Z,99759.38
2019-02-19T10:03:08.691Z,99752.58
2019-02-19T10:05:36.928Z,99748.83
2019-02-19T10:08:05.420Z,99755.86
2019-02-19T10:10:33.663Z,99755.07
2019-02-19T10:13:01.883Z,99766.11
2019-02-19T10:15:30.459Z,99761.47
2019-02-19T10:17:58.693Z,99773.27
2019-02-19T10:20:27.216Z,99773.69
2019-02-19T10:22:55.697Z,99772.86
2019-02-19T10:25:23.940Z,99775.39
2019-02-19T10:27:52.458Z,99759.38
2019-02-19T10:30:21.072Z,99784.70
2019-02-19T10:32:49.304Z,99783.12
2019-02-19T10:35:17.548Z,99780.25
2019-02-19T10:37:46.078Z,99786.75
2019-02-19T10:40:16.826Z,99789.18
2019-02-19T10:42:45.044Z,99787.19
2019-02-19T10:45:18.747Z,99792.80
2019-02-19T10:47:46.981Z,99796.99
2019-02-19T10:50:15.217Z,99797.28
2019-02-19T10:52:43.461Z,99793.27
2019-02-19T10:55:11.930Z,99793.06
2019-02-19T10:57:40.181Z,99802.59
2019-02-19T11:00:12.449Z,99808.75
2019-02-19T11:02:40.697Z,99805.93
2019-02-19T11:05:10.071Z,99802.41
2019-02-19T11:07:38.306Z,99790.49
2019-02-19T11:10:10.071Z,99788.64
2019-02-19T11:12:38.309Z,99789.32
2019-02-19T11:15:14.454Z,99783.81
2019-02-19T11:17:42.817Z,99792.03
2019-02-19T11:20:21.141Z,99788.81
2019-02-19T11:22:49.380Z,99786.72
2019-02-19T11:25:17.603Z,99777.88
2019-02-19T11:27:45.853Z,99777.67
2019-02-19T11:30:20.344Z,99773.48
2019-02-19T11:32:48.635Z,99779.03
2019-02-19T11:35:17.230Z,99772.66
2019-02-19T11:37:45.450Z,99774.11
2019-02-19T11:40:14.328Z,99768.64
2019-02-19T11:42:42.571Z,99766.54
2019-02-19T11:45:15.621Z,99771.14
2019-02-19T11:47:43.951Z,99766.63
2019-02-19T11:50:13.022Z,99777.50
2019-02-19T11:52:41.480Z,99763.64
2019-02-19T11:55:14.452Z,99766.14
2019-02-19T11:57:42.690Z,99766.14
2019-02-19T12:00:17.427Z,99761.11
2019-02-19T12:02:45.670Z,99758.56
2019-02-19T12:05:13.917Z,99757.01
2019-02-19T12:07:42.163Z,99744.01
2019-02-19T12:10:12.072Z,99747.19
2019-02-19T12:12:40.473Z,99751.65
2019-02-19T12:15:10.860Z,99749.70
2019-02-19T12:17:39.437Z,99747.17
2019-02-19T12:20:11.184Z,99743.94
2019-02-19T12:22:39.415Z,99747.87
2019-02-19T12:25:08.898Z,99746.03
2019-02-19T12:27:37.146Z,99742.65
2019-02-19T12:30:11.165Z,99742.50
2019-02-19T12:32:39.672Z,99750.08
2019-02-19T12:35:08.761Z,99734.05
2019-02-19T12:37:36.999Z,99738.45
2019-02-19T12:40:08.383Z,99731.27
2019-02-19T12:42:36.994Z,99733.17
2019-02-19T12:45:07.762Z,99732.42
2019-02-19T12:47:36.012Z,99729.96
2019-02-19T12:50:05.985Z,99724.20
2019-02-19T12:52:34.230Z,99725.05
2019-02-19T12:55:02.462Z,99724.07
2019-02-19T12:57:31.013Z,99714.31
2019-02-19T12:59:59.243Z,99716.75
2019-02-19T13:02:27.494Z,99717.70
2019-02-19T13:04:55.732Z,99709.31
2019-02-19T13:07:23.987Z,99707.30
2019-02-19T13:09:52.229Z,99685.64
2019-02-19T13:12:20.693Z,99697.31
2019-02-19T13:14:48.930Z,99701.06
2019-02-19T13:17:17.175Z,99704.58
2019-02-19T13:19:45.410Z,99696.66
2019-02-19T13:22:13.952Z,99699.70
2019-02-19T13:24:43.120Z,99691.00
2019-02-19T13:27:11.399Z,99695.02
2019-02-19T13:29:39.631Z,99691.36
2019-02-19T13:32:07.877Z,99695.06
2019-02-19T13:34:36.121Z,99697.85
2019-02-19T13:37:04.583Z,99694.94
2019-02-19T13:39:33.040Z,99694.39
2019-02-19T13:42:01.541Z,99697.85
2019-02-19T13:44:29.969Z,99692.57
2019-02-19T13:46:58.187Z,99689.58
2019-02-19T13:49:26.435Z,99687.49
2019-02-19T13:51:56.300Z,99681.84
2019-02-19T13:54:25.714Z,99694.96
2019-02-19T13:56:53.948Z,99699.84
2019-02-19T13:59:22.195Z,99697.36
2019-02-19T14:01:50.422Z,99708.30
2019-02-19T14:04:18.672Z,99701.02
2019-02-19T14:06:46.909Z,99704.05
2019-02-19T14:09:15.148Z,99704.81
2019-02-19T14:11:43.380Z,99700.95
2019-02-19T14:14:13.257Z,99712.17
2019-02-19T14:16:43.348Z,99707.31
2019-02-19T14:19:21.015Z,99708.25
2019-02-19T14:21:44.769Z,99709.07
2019-02-19T14:24:23.361Z,99714.64
2019-02-19T14:27:09.353Z,99714.34
2019-02-19T14:29:51.046Z,99714.72
2019-02-19T14:32:35.793Z,99718.53
2019-02-19T14:35:12.375Z,99725.45
2019-02-19T14:37:45.011Z,99719.66
2019-02-19T14:40:41.824Z,99723.73
2019-02-19T14:43:14.233Z,99729.56
2019-02-19T14:45:52.906Z,99729.16
2019-02-19T14:48:25.547Z,99726.73
2019-02-19T14:50:55.433Z,99719.42
2019-02-19T14:53:41.647Z,99713.95
2019-02-19T14:56:29.956Z,99711.30
2019-02-19T14:59:12.314Z,99708.59
2019-02-19T15:01:54.170Z,99708.77
2019-02-19T15:04:40.508Z,99709.17
2019-02-19T15:07:22.295Z,99706.09
2019-02-19T15:09:54.575Z,99706.30
2019-02-19T15:12:24.671Z,99703.13
2019-02-19T15:15:12.411Z,99706.64
2019-02-19T15:17:58.771Z,99705.45
2019-02-19T15:20:31.598Z,99705.45
2019-02-19T15:23:10.763Z,99704.70
2019-02-19T15:25:40.952Z,99705.20
2019-02-19T15:28:13.476Z,99703.23
2019-02-19T15:30:46.259Z,99705.66
2019-02-19T15:33:16.363Z,99703.31
2019-02-19T15:35:48.714Z,99701.20
2019-02-19T15:38:24.265Z,99704.61
2019-02-19T15:40:54.127Z,99703.31
2019-02-19T15:43:29.426Z,99713.58
2019-02-19T15:45:59.300Z,99709.95
2019-02-19T15:48:31.839Z,99712.06
2019-02-19T15:51:07.335Z,99714.89
2019-02-19T15:53:42.918Z,99723.81
2019-02-19T15:56:18.671Z,99716.70
2019-02-19T15:58:54.208Z,99716.83
2019-02-19T16:01:29.681Z,99708.36
2019-02-19T16:04:05.519Z,99719.25
2019-02-19T16:06:53.163Z,99714.14
2019-02-19T16:09:23.043Z,99722.33
2019-02-19T16:11:55.766Z,99726.28
2019-02-19T16:14:25.861Z,99725.45
2019-02-19T16:17:10.855Z,99727.16
2019-02-19T16:19:40.733Z,99726.83
2019-02-19T16:22:16.018Z,99715.16
2019-02-19T16:25:01.903Z,99726.50
2019-02-19T16:27:34.728Z,99724.83
2019-02-19T16:30:04.611Z,99726.34
2019-02-19T16:32:40.502Z,99727.35
2019-02-19T16:35:22.411Z,99730.23
2019-02-19T16:37:52.747Z,99728.98
2019-02-19T16:40:22.839Z,99734.61
2019-02-19T16:43:07.351Z,99735.11
2019-02-19T16:45:51.792Z,99733.70
2019-02-19T16:48:24.274Z,99740.94
2019-02-19T16:50:59.807Z,99737.35
2019-02-19T16:53:38.366Z,99744.67
2019-02-19T16:56:13.658Z,99741.95
2019-02-19T16:58:55.332Z,99741.89
2019-02-19T17:01:25.418Z,99748.31
2019-02-19T17:03:57.941Z,99749.99
2019-02-19T17:06:28.048Z,99753.40
2019-02-19T17:08:57.914Z,99755.95
2019-02-19T17:11:33.710Z,99762.47
2019-02-19T17:14:03.570Z,99759.48
2019-02-19T17:16:48.794Z,99766.80
2019-02-19T17:19:21.763Z,99770.34
2019-02-19T17:22:09.892Z,99774.64
2019-02-19T17:24:44.854Z,99780.76
2019-02-19T17:27:23.549Z,99780.63
2019-02-19T17:29:55.959Z,99784.24
2019-02-19T17:32:34.911Z,99789.67
2019-02-19T17:35:16.477Z,99787.36
2019-02-19T17:37:46.344Z,99794.49
2019-02-19T17:40:19.216Z,99792.98
2019-02-19T17:43:04.194Z,99794.48
2019-02-19T17:45:49.977Z,99794.80
2019-02-19T17:48:23.133Z,99793.33
2019-02-19T17:50:53.290Z,99793.69
2019-02-19T17:53:39.110Z,99797.73
2019-02-19T17:56:17.838Z,99796.89
2019-02-19T17:58:50.402Z,99797.67
2019-02-19T18:01:20.280Z,99804.36
2019-02-19T18:03:52.874Z,99802.34
2019-02-19T18:06:25.355Z,99806.92
2019-02-19T18:09:06.940Z,99806.16
2019-02-19T18:11:39.225Z,99810.13
2019-02-19T18:14:09.089Z,99810.48
2019-02-19T18:16:42.141Z,99819.08
2019-02-19T18:19:10.373Z,99816.33
2019-02-19T18:21:38.600Z,99815.91
2019-02-19T18:24:06.837Z,99823.30
2019-02-19T18:26:35.064Z,99823.75
2019-02-19T18:29:03.312Z,99828.28
2019-02-19T18:31:31.530Z,99820.77
2019-02-19T18:33:59.990Z,99827.37
2019-02-19T18:36:28.219Z,99833.48
2019-02-19T18:38:56.669Z,99825.52
2019-02-19T18:41:24.900Z,99828.41
2019-02-19T18:43:53.359Z,99814.16
2019-02-19T18:46:21.632Z,99838.05
2019-02-19T18:48:49.869Z,99834.81
2019-02-19T18:51:18.099Z,99834.52
2019-02-19T18:53:46.495Z,99838.49
2019-02-19T18:56:14.740Z,99840.56
2019-02-19T18:58:43.220Z,99841.38
2019-02-19T19:01:11.458Z,99846.00
2019-02-19T19:03:39.691Z,99847.31
2019-02-19T19:06:07.923Z,99849.17
2019-02-19T19:08:36.162Z,99854.77
2019-02-19T19:11:04.629Z,99854.51
2019-02-19T19:13:32.836Z,99859.03
2019-02-19T19:16:01.071Z,99863.94
2019-02-19T19:18:29.295Z,99862.95
2019-02-19T19:20:57.610Z,99864.70
2019-02-19T19:23:25.881Z,99871.71
2019-02-19T19:25:54.124Z,99869.55
2019-02-19T19:28:22.347Z,99875.41
2019-02-19T19:30:50.607Z,99880.98
2019-02-19T19:33:18.882Z,99880.39
2019-02-19T19:35:47.216Z,99882.45
2019-02-19T19:38:15.443Z,99889.52
2019-02-19T19:40:43.693Z,99887.67
2019-02-19T19:43:12.184Z,99886.19
2019-02-19T19:45:40.420Z,99891.30
2019-02-19T19:48:08.871Z,99897.76
2019-02-19T19:50:37.094Z,99892.73
2019-02-19T19:53:05.398Z,99896.67
2019-02-19T19:55:33.625Z,99894.89
2019-02-19T19:58:01.867Z,99904.72
2019-02-19T20:00:30.330Z,99898.34
2019-02-19T20:02:58.555Z,99897.95
2019-02-19T20:05:26.779Z,99901.84
2019-02-19T20:07:55.012Z,99898.20
2019-02-19T20:10:23.238Z,99902.41
2019-02-19T20:12:51.478Z,99902.09
2019-02-19T20:15:19.702Z,99900.33
2019-02-19T20:17:48.159Z,99887.25
2019-02-19T20:20:16.383Z,99887.17
2019-02-19T20:22:44.628Z,99894.89
2019-02-19T20:25:13.786Z,99891.70
2019-02-19T20:27:42.025Z,99892.91
2019-02-19T20:30:15.083Z,99900.45
2019-02-19T20:32:43.319Z,99904.66
2019-02-19T20:35:11.951Z,99911.22
2019-02-19T20:37:40.263Z,99908.63
2019-02-19T20:40:10.133Z,99914.31
2019-02-19T20:42:38.370Z,99914.88
2019-02-19T20:45:09.558Z,99919.48
2019-02-19T20:47:37.795Z,99921.64
2019-02-19T20:50:11.091Z,99919.09
2019-02-19T20:52:39.332Z,99920.92
2019-02-19T20:55:12.022Z,99925.30
2019-02-19T20:57:40.274Z,99923.90
2019-02-19T21:00:11.560Z,99904.98
2019-02-19T21:02:39.808Z,99926.92
2019-02-19T21:05:09.672Z,99926.92
2019-02-19T21:07:37.911Z,99926.14
2019-02-19T21:10:17.397Z,99926.31
2019-02-19T21:12:45.653Z,99926.31
2019-02-19T21:15:13.982Z,99935.14
2019-02-19T21:17:42.195Z,99935.14
2019-02-19T21:20:11.591Z,99934.64
2019-02-19T21:22:40.050Z,99932.25
2019-02-19T21:25:09.829Z,99929.12
2019-02-19T21:27:38.058Z,99916.37
2019-02-19T21:30:09.405Z,99916.37
2019-02-19T21:32:37.630Z,99918.53
2019-02-19T21:35:06.708Z,99945.46
2019-02-19T21:37:35.154Z,99941.53
2019-02-19T21:40:04.244Z,99943.91
2019-02-19T21:42:32.457Z,99939.44
2019-02-19T21:45:00.694Z,99935.19
2019-02-19T21:47:29.141Z,99935.19
2019-02-19T21:49:57.606Z,99947.08
2019-02-19T21:52:28.038Z,99937.59
2019-02-19T21:54:56.228Z,99937.59
2019-02-19T21:57:24.452Z,99945.86
2019-02-19T21:59:52.697Z,99951.88
2019-02-19T22:02:20.924Z,99945.83
2019-02-19T22:04:49.168Z,99945.78
2019-02-19T22:07:17.403Z,99945.78
2019-02-19T22:09:45.642Z,99933.20
2019-02-19T22:12:13.982Z,99946.75
2019-02-19T22:14:42.218Z,99946.75
2019-02-19T22:17:10.447Z,99944.16
2019-02-19T22:19:39.007Z,99947.78
2019-02-19T22:22:09.094Z,99947.78
2019-02-19T22:24:37.330Z,99943.19
2019-02-19T22:27:06.034Z,99950.89
2019-02-19T22:29:34.265Z,99950.89
2019-02-19T22:32:02.765Z,99941.25
2019-02-19T22:34:31.001Z,99950.27
2019-02-19T22:36:59.227Z,99950.27
2019-02-19T22:39:27.465Z,99947.49
2019-02-19T22:41:55.689Z,99954.52
2019-02-19T22:44:23.934Z,99946.61
2019-02-19T22:46:52.163Z,99953.00
2019-02-19T22:49:20.393Z,99957.13
2019-02-19T22:51:48.855Z,99954.22
2019-02-19T22:54:21.175Z,99954.22
2019-02-19T22:56:49.411Z,99950.94
2019-02-19T22:59:18.917Z,99948.27
2019-02-19T23:01:48.988Z,99955.14
2019-02-19T23:04:17.218Z,99963.13
2019-02-19T23:06:45.465Z,99948.80
2019-02-19T23:09:13.957Z,99948.80
2019-02-19T23:11:42.417Z,99966.80
2019-02-19T23:14:10.645Z,99966.80
2019-02-19T23:16:39.110Z,99963.03
2019-02-19T23:19:07.333Z,99963.03
2019-02-19T23:21:35.578Z,99928.77
2019-02-19T23:24:03.798Z,99928.77
2019-02-19T23:26:32.036Z,99964.95
2019-02-19T23:29:00.263Z,99954.20
2019-02-19T23:31:28.503Z,99968.27
2019-02-19T23:33:56.750Z,99969.75
2019-02-19T23:36:32.408Z,99969.03
2019-02-19T23:39:00.639Z,99969.70
2019-02-19T23:41:28.889Z,99972.63
2019-02-19T23:43:57.130Z,99972.63
2019-02-19T23:46:25.356Z,99973.05
2019-02-19T23:48:53.583Z,99973.05
2019-02-19T23:51:21.891Z,99976.50
2019-02-19T23:53:50.126Z,99977.39
2019-02-19T23:56:18.368Z,99977.91
2019-02-19T23:58:46.595Z,99971.19
